Dades meteomassalio
Diari Summary for Gener 10, 2018 Units:  English    Metric   Both
« Previous Day
Next Day »
Diari Semanal Mensual Anual Personalitzat
  Maxima: Minima: Mijana:
Temperatura: TemperatureC °F 2.8 °F 9 °F
Rosada: DewpointC °F 0.0 °F 3.8 °F
Humitat: Humidity % 60 % 68 %
Velocitat del vent: WindSpeedKMH mph 0.0 mph 10.5 mph
Racha vent: WindSpeedGustKMH mph - -
Vent:- - SW
Pressio: PressurehPa in 1018.2 in -
Pluja: 0.5 in    
Historical Graphs
 
 
Tabular Data for Gener 10, 2018
Time Temperature Dew Point Pressure Wind Wind Speed Wind Gust Humidity Rainfall Rate (Hourly) solar Conditions
TemperatureC °F DewpointC °F PressurehPa in Calm     Humidity % HourlyPrecipMM in SolarRadiationWatts/m^2 W/m2 Conditions
00:04 2.8 °F 1.2 °F 1021.9 in Calm     89 % 0.0 in 0.0 W/m2 RA
00:12 3.3 °F 1.7 °F 1021.9 in Calm     89 % 0.0 in 0.0 W/m2 CLR
00:16 3.3 °F 1.7 °F 1021.6 in Calm     89 % 0.0 in 0.0 W/m2 CLR
00:26 3.3 °F 1.8 °F 1021.6 in Calm     90 % 0.0 in 0.0 W/m2 CLR
00:51 3.3 °F 1.8 °F 1021.6 in Calm     90 % 0.0 in 0.0 W/m2 RA
13:55 12.2 °F 6.5 °F 1018.8 in North 25.9 mph 25.9 mph 68 % 0.0 in 436.0 W/m2 CLR
14:07 12.8 °F 6.6 °F 1018.5 in NNW 20.4 mph 20.4 mph 66 % 0.0 in 425.0 W/m2 CLR
14:41 11.7 °F 6.4 °F 1018.5 in North 16.7 mph 16.7 mph 70 % 0.0 in 461.0 W/m2 CLR
14:46 12.2 °F 6.9 °F 1018.5 in North 14.8 mph 14.8 mph 70 % 0.0 in 475.0 W/m2 CLR
14:51 12.2 °F 6.9 °F 1018.5 in NNE 16.7 mph 16.7 mph 70 % 0.0 in 406.0 W/m2 CLR
14:56 12.2 °F 6.7 °F 1018.5 in NNE 20.4 mph 20.4 mph 69 % 0.0 in 70.0 W/m2 CLR
15:04 11.1 °F 5.6 °F 1018.8 in North 22.2 mph 22.2 mph 69 % 0.0 in 47.0 W/m2 FEW
15:10 10.6 °F 5.3 °F 1018.8 in North 19.3 mph 19.3 mph 70 % 0.0 in 111.0 W/m2 FEW
15:16 10.6 °F 5.5 °F 1018.8 in NNE 16.7 mph 16.7 mph 71 % 0.0 in 149.0 W/m2 CLR
15:22 10.6 °F 5.5 °F 1019.2 in NNE 14.5 mph 14.5 mph 71 % 0.0 in 130.0 W/m2 CLR
15:27 10.6 °F 5.5 °F 1019.2 in NNE 16.7 mph 16.7 mph 71 % 0.0 in 111.0 W/m2 CLR
15:38 10.6 °F 5.5 °F 1018.8 in NE 14.5 mph 14.5 mph 71 % 0.0 in 139.0 W/m2 CLR
15:46 10.6 °F 5.7 °F 1019.2 in NNE 3.7 mph 3.7 mph 72 % 0.0 in 141.0 W/m2 CLR
15:53 10.6 °F 5.7 °F 1019.2 in NNW 5.6 mph 5.6 mph 72 % 0.0 in 178.0 W/m2 CLR
16:03 11.1 °F 6.1 °F 1019.2 in NNW 16.7 mph 16.7 mph 71 % 0.0 in 105.0 W/m2 CLR
16:08 10.6 °F 5.3 °F 1019.2 in North 18.5 mph 18.5 mph 70 % 0.0 in 135.0 W/m2 CLR
16:15 10.6 °F 5.5 °F 1019.2 in North 11.1 mph 11.1 mph 71 % 0.0 in 155.0 W/m2 CLR
16:20 10.6 °F 5.5 °F 1019.2 in Calm     71 % 0.0 in 98.0 W/m2 CLR
16:28 10.6 °F 5.5 °F 1019.2 in Calm     71 % 0.0 in 142.0 W/m2 CLR
16:35 10.6 °F 5.1 °F 1019.2 in NW 3.7 mph 3.7 mph 69 % 0.0 in 91.0 W/m2 CLR
16:47 10.6 °F 5.1 °F 1018.8 in Calm     69 % 0.0 in 67.0 W/m2 FEW
16:58 10.0 °F 3.7 °F 1018.5 in NW 13.0 mph 13.0 mph 65 % 0.0 in 67.0 W/m2 FEW
17:07 10.6 °F 3.1 °F 1018.8 in West 30.6 mph 30.6 mph 60 % 0.0 in 42.0 W/m2 BKN
17:20 10.6 °F 3.1 °F 1018.8 in NW 19.3 mph 19.3 mph 60 % 0.0 in 21.0 W/m2 BKN
17:26 10.6 °F 3.1 °F 1018.8 in NW 22.2 mph 22.2 mph 60 % 0.0 in 16.0 W/m2 BKN
17:38 10.0 °F 2.8 °F 1018.5 in WNW 18.5 mph 18.5 mph 61 % 0.0 in 7.0 W/m2 BKN
17:44 10.0 °F 2.8 °F 1018.5 in NW 18.5 mph 18.5 mph 61 % 0.0 in 0.0 W/m2 OVC
17:51 10.0 °F 2.8 °F 1018.5 in NNW 14.8 mph 14.8 mph 61 % 0.0 in 0.0 W/m2 OVC
18:04 8.9 °F 2.4 °F 1018.5 in NW 9.3 mph 9.3 mph 64 % 0.0 in 0.0 W/m2 CLR
18:09 8.9 °F 2.4 °F 1018.5 in NW 1.9 mph 1.9 mph 64 % 0.0 in 0.0 W/m2 CLR
18:19 7.8 °F 1.4 °F 1018.5 in Calm     64 % 0.0 in 0.0 W/m2 CLR
18:28 7.2 °F 0.8 °F 1018.5 in WNW 11.1 mph 11.1 mph 64 % 0.0 in 0.0 W/m2 CLR
18:37 7.2 °F 1.1 °F 1018.2 in NW 3.2 mph 3.2 mph 65 % 0.0 in 0.0 W/m2 CLR
18:47 6.7 °F 0.6 °F 1018.2 in NW 3.7 mph 3.7 mph 65 % 0.0 in 0.0 W/m2 CLR
18:53 6.7 °F 0.6 °F 1018.2 in NNW 3.2 mph 3.2 mph 65 % 0.0 in 0.0 W/m2 CLR
18:59 6.7 °F 0.8 °F 1018.2 in NW 3.7 mph 3.7 mph 66 % 0.0 in 0.0 W/m2 CLR
19:06 6.1 °F 0.0 °F 1018.2 in Calm     65 % 0.0 in 0.0 W/m2 CLR
Lo Temps de Massalio
Compliments of Weather Underground - 512 kb